Portada
METAR-TAF:

METAR-TAF

Aeropuertos :

Aeropuerto de Valencia

Valencia, España

latitud: 39-30N, longitud: 000-28W, altitud: 69 m

Observación

El informe se hizo hace 1 hora y 14 minutos, a las 03:00 UTC
Viento 6 kt del oeste
Temperatura 9°C
Humedad 61%
Presión 1019 hPa
Visibilidad 10 km o más
sin nubes por debajo de 1500 m y sin presencia de cumulonimbus.

METAR: LEVC 290300Z 27006KT CAVOK 09/02 Q1019 NOSIG

Hora: 05:14 (04:14 UTC)

Pronóstico

El informe se hizo hace 5 horas y 14 minutos, a las 23:00 UTC
Pronóstico válido del 29 a las 00 UTC al 29 a las 24 UTC
Viento 7 kt del oeste
Visibilidad 10 km o más
Escasas nubes a una altura de 3000 ft

TAF: LEVC 282300Z 2900/2924 26007KT 9999 FEW030 TX19/2912Z TN08/2905Z

Observaciones y pronósticos meteorológicos de más de 4000 aeropuertos (mensajes METAR y TAF).

Los puntos amarillos y rojos representan las estaciones disponibles.

Ponga el ratón en el punto deseado para ver el nombre de la estación.

Haga clic para ver las observaciones y los pronósticos meteorológicos.

Para cambiar el mapa : haga clic en los botones verdes con una cruz de color negro para hacer un zoom, en el botón verde con un guión para alejar o en las flechas verdes para mapas adyacentes.


METAR-TAF: